sensor_id;sensor_type;location;lat;lon;timestamp;P1;durP1;ratioP1;P2;durP2;ratioP2
40150;SDS011;25866;52.420;10.640;2022-11-20T00:01:13;15.13;;;8.33;;
40150;SDS011;25866;52.420;10.640;2022-11-20T00:03:40;16.13;;;8.73;;
40150;SDS011;25866;52.420;10.640;2022-11-20T00:06:08;13.53;;;8.67;;
40150;SDS011;25866;52.420;10.640;2022-11-20T00:08:35;12.07;;;7.97;;
40150;SDS011;25866;52.420;10.640;2022-11-20T00:13:41;13.63;;;9.03;;
40150;SDS011;25866;52.420;10.640;2022-11-20T00:16:12;14.77;;;8.57;;
40150;SDS011;25866;52.420;10.640;2022-11-20T00:18:39;12.73;;;8.77;;
40150;SDS011;25866;52.420;10.640;2022-11-20T00:21:14;13.50;;;8.23;;
40150;SDS011;25866;52.420;10.640;2022-11-20T00:23:42;14.23;;;8.53;;
40150;SDS011;25866;52.420;10.640;2022-11-20T00:26:12;14.23;;;9.00;;
40150;SDS011;25866;52.420;10.640;2022-11-20T00:28:40;14.17;;;7.97;;
40150;SDS011;25866;52.420;10.640;2022-11-20T00:31:08;13.23;;;8.50;;
40150;SDS011;25866;52.420;10.640;2022-11-20T00:33:36;13.00;;;7.57;;
40150;SDS011;25866;52.420;10.640;2022-11-20T00:36:06;13.70;;;8.60;;
40150;SDS011;25866;52.420;10.640;2022-11-20T00:38:33;13.07;;;8.13;;
40150;SDS011;25866;52.420;10.640;2022-11-20T00:41:00;17.30;;;8.73;;
40150;SDS011;25866;52.420;10.640;2022-11-20T00:43:29;13.40;;;8.80;;
40150;SDS011;25866;52.420;10.640;2022-11-20T00:45:56;12.33;;;8.03;;
40150;SDS011;25866;52.420;10.640;2022-11-20T00:48:23;13.60;;;8.77;;
40150;SDS011;25866;52.420;10.640;2022-11-20T00:50:49;13.90;;;8.97;;
40150;SDS011;25866;52.420;10.640;2022-11-20T00:53:15;12.30;;;8.23;;
40150;SDS011;25866;52.420;10.640;2022-11-20T00:55:40;13.17;;;8.77;;
40150;SDS011;25866;52.420;10.640;2022-11-20T00:58:06;13.67;;;8.17;;
40150;SDS011;25866;52.420;10.640;2022-11-20T01:00:32;13.90;;;8.70;;
40150;SDS011;25866;52.420;10.640;2022-11-20T01:02:57;13.40;;;8.67;;
40150;SDS011;25866;52.420;10.640;2022-11-20T01:05:23;12.90;;;9.33;;
40150;SDS011;25866;52.420;10.640;2022-11-20T01:07:49;13.90;;;8.43;;
40150;SDS011;25866;52.420;10.640;2022-11-20T01:10:14;14.37;;;8.90;;
40150;SDS011;25866;52.420;10.640;2022-11-20T01:12:40;16.77;;;9.83;;
40150;SDS011;25866;52.420;10.640;2022-11-20T01:15:29;11.13;;;7.83;;
40150;SDS011;25866;52.420;10.640;2022-11-20T01:17:58;13.57;;;8.40;;
40150;SDS011;25866;52.420;10.640;2022-11-20T01:20:24;13.07;;;8.57;;
40150;SDS011;25866;52.420;10.640;2022-11-20T01:22:49;12.97;;;8.27;;
40150;SDS011;25866;52.420;10.640;2022-11-20T01:25:15;15.60;;;8.03;;
40150;SDS011;25866;52.420;10.640;2022-11-20T01:27:41;13.33;;;8.63;;
40150;SDS011;25866;52.420;10.640;2022-11-20T01:30:06;12.87;;;7.93;;
40150;SDS011;25866;52.420;10.640;2022-11-20T01:32:32;13.87;;;8.57;;
40150;SDS011;25866;52.420;10.640;2022-11-20T01:34:58;13.40;;;8.87;;
40150;SDS011;25866;52.420;10.640;2022-11-20T01:37:24;13.23;;;8.23;;
40150;SDS011;25866;52.420;10.640;2022-11-20T01:39:49;13.90;;;8.60;;
40150;SDS011;25866;52.420;10.640;2022-11-20T01:42:15;12.63;;;8.03;;
40150;SDS011;25866;52.420;10.640;2022-11-20T01:44:59;11.50;;;7.00;;
40150;SDS011;25866;52.420;10.640;2022-11-20T01:47:30;13.63;;;8.60;;
40150;SDS011;25866;52.420;10.640;2022-11-20T01:52:52;14.17;;;7.27;;
40150;SDS011;25866;52.420;10.640;2022-11-20T01:55:26;12.07;;;7.73;;
40150;SDS011;25866;52.420;10.640;2022-11-20T01:57:56;9.97;;;7.27;;
40150;SDS011;25866;52.420;10.640;2022-11-20T02:00:22;12.60;;;8.03;;
40150;SDS011;25866;52.420;10.640;2022-11-20T02:02:53;13.53;;;8.40;;
40150;SDS011;25866;52.420;10.640;2022-11-20T02:08:08;10.73;;;7.33;;
40150;SDS011;25866;52.420;10.640;2022-11-20T02:10:34;14.33;;;8.67;;
40150;SDS011;25866;52.420;10.640;2022-11-20T02:13:00;10.10;;;7.10;;
40150;SDS011;25866;52.420;10.640;2022-11-20T02:15:45;13.53;;;7.93;;
40150;SDS011;25866;52.420;10.640;2022-11-20T02:18:12;11.87;;;7.40;;
40150;SDS011;25866;52.420;10.640;2022-11-20T02:20:40;13.17;;;7.77;;
40150;SDS011;25866;52.420;10.640;2022-11-20T02:23:11;12.37;;;7.90;;
40150;SDS011;25866;52.420;10.640;2022-11-20T02:25:39;11.73;;;8.07;;
40150;SDS011;25866;52.420;10.640;2022-11-20T02:28:07;10.83;;;7.63;;
40150;SDS011;25866;52.420;10.640;2022-11-20T02:30:34;11.83;;;7.47;;
40150;SDS011;25866;52.420;10.640;2022-11-20T02:33:00;12.90;;;7.63;;
40150;SDS011;25866;52.420;10.640;2022-11-20T02:37:53;13.23;;;7.73;;
40150;SDS011;25866;52.420;10.640;2022-11-20T02:40:20;11.23;;;7.40;;
40150;SDS011;25866;52.420;10.640;2022-11-20T02:42:46;12.50;;;7.63;;
40150;SDS011;25866;52.420;10.640;2022-11-20T02:45:12;12.70;;;7.00;;
40150;SDS011;25866;52.420;10.640;2022-11-20T02:47:38;12.00;;;7.20;;
40150;SDS011;25866;52.420;10.640;2022-11-20T02:50:04;11.47;;;7.00;;
40150;SDS011;25866;52.420;10.640;2022-11-20T02:52:30;14.37;;;7.60;;
40150;SDS011;25866;52.420;10.640;2022-11-20T02:54:56;11.37;;;7.20;;
40150;SDS011;25866;52.420;10.640;2022-11-20T02:57:22;12.17;;;7.30;;
40150;SDS011;25866;52.420;10.640;2022-11-20T02:59:47;10.73;;;7.23;;
40150;SDS011;25866;52.420;10.640;2022-11-20T03:02:13;10.30;;;6.83;;
40150;SDS011;25866;52.420;10.640;2022-11-20T03:04:39;10.67;;;6.77;;
40150;SDS011;25866;52.420;10.640;2022-11-20T03:07:04;11.53;;;7.03;;
40150;SDS011;25866;52.420;10.640;2022-11-20T03:09:30;10.43;;;6.63;;
40150;SDS011;25866;52.420;10.640;2022-11-20T03:11:56;11.40;;;6.90;;
40150;SDS011;25866;52.420;10.640;2022-11-20T03:14:22;10.33;;;6.80;;
40150;SDS011;25866;52.420;10.640;2022-11-20T03:16:47;12.07;;;6.80;;
40150;SDS011;25866;52.420;10.640;2022-11-20T03:19:13;12.70;;;6.67;;
40150;SDS011;25866;52.420;10.640;2022-11-20T03:21:39;10.93;;;6.63;;
40150;SDS011;25866;52.420;10.640;2022-11-20T03:24:05;11.23;;;6.57;;
40150;SDS011;25866;52.420;10.640;2022-11-20T03:26:31;10.60;;;6.37;;
40150;SDS011;25866;52.420;10.640;2022-11-20T03:28:58;10.47;;;6.77;;
40150;SDS011;25866;52.420;10.640;2022-11-20T03:31:29;12.00;;;6.57;;
40150;SDS011;25866;52.420;10.640;2022-11-20T03:34:00;8.93;;;5.83;;
40150;SDS011;25866;52.420;10.640;2022-11-20T03:36:27;9.03;;;6.33;;
40150;SDS011;25866;52.420;10.640;2022-11-20T03:38:53;12.00;;;7.03;;
40150;SDS011;25866;52.420;10.640;2022-11-20T03:41:21;11.60;;;7.40;;
40150;SDS011;25866;52.420;10.640;2022-11-20T03:43:52;13.73;;;7.10;;
40150;SDS011;25866;52.420;10.640;2022-11-20T03:46:19;10.33;;;6.93;;
40150;SDS011;25866;52.420;10.640;2022-11-20T03:48:46;11.20;;;6.70;;
40150;SDS011;25866;52.420;10.640;2022-11-20T03:53:39;10.37;;;6.53;;
40150;SDS011;25866;52.420;10.640;2022-11-20T03:56:05;11.00;;;6.90;;
40150;SDS011;25866;52.420;10.640;2022-11-20T03:58:32;10.93;;;6.73;;
40150;SDS011;25866;52.420;10.640;2022-11-20T04:01:10;9.87;;;6.47;;
40150;SDS011;25866;52.420;10.640;2022-11-20T04:03:38;9.83;;;6.13;;
40150;SDS011;25866;52.420;10.640;2022-11-20T04:06:09;10.90;;;6.70;;
40150;SDS011;25866;52.420;10.640;2022-11-20T04:08:37;11.20;;;6.50;;
40150;SDS011;25866;52.420;10.640;2022-11-20T04:11:10;11.50;;;6.83;;
40150;SDS011;25866;52.420;10.640;2022-11-20T04:13:41;10.47;;;6.70;;
40150;SDS011;25866;52.420;10.640;2022-11-20T04:16:10;10.73;;;5.67;;
40150;SDS011;25866;52.420;10.640;2022-11-20T04:18:36;12.17;;;6.67;;
40150;SDS011;25866;52.420;10.640;2022-11-20T04:21:02;10.43;;;6.60;;
40150;SDS011;25866;52.420;10.640;2022-11-20T04:23:29;12.20;;;6.47;;
40150;SDS011;25866;52.420;10.640;2022-11-20T04:26:00;9.37;;;6.10;;
40150;SDS011;25866;52.420;10.640;2022-11-20T04:28:28;8.87;;;5.97;;
40150;SDS011;25866;52.420;10.640;2022-11-20T04:30:53;10.60;;;6.17;;
40150;SDS011;25866;52.420;10.640;2022-11-20T04:33:19;7.90;;;5.73;;
40150;SDS011;25866;52.420;10.640;2022-11-20T04:35:45;9.90;;;5.90;;
40150;SDS011;25866;52.420;10.640;2022-11-20T04:38:12;9.70;;;5.80;;
40150;SDS011;25866;52.420;10.640;2022-11-20T04:40:38;10.00;;;6.50;;
40150;SDS011;25866;52.420;10.640;2022-11-20T04:43:04;9.77;;;6.27;;
40150;SDS011;25866;52.420;10.640;2022-11-20T04:45:29;8.63;;;5.80;;
40150;SDS011;25866;52.420;10.640;2022-11-20T04:47:55;10.17;;;6.73;;
40150;SDS011;25866;52.420;10.640;2022-11-20T04:50:21;10.57;;;6.67;;
40150;SDS011;25866;52.420;10.640;2022-11-20T04:52:46;8.83;;;5.97;;
40150;SDS011;25866;52.420;10.640;2022-11-20T04:55:12;10.40;;;6.03;;
40150;SDS011;25866;52.420;10.640;2022-11-20T04:57:38;10.83;;;6.40;;
40150;SDS011;25866;52.420;10.640;2022-11-20T05:00:04;10.30;;;6.07;;
40150;SDS011;25866;52.420;10.640;2022-11-20T05:02:30;9.90;;;6.10;;
40150;SDS011;25866;52.420;10.640;2022-11-20T05:04:57;10.50;;;6.23;;
40150;SDS011;25866;52.420;10.640;2022-11-20T05:07:22;9.23;;;6.00;;
40150;SDS011;25866;52.420;10.640;2022-11-20T05:09:48;12.07;;;6.50;;
40150;SDS011;25866;52.420;10.640;2022-11-20T05:12:14;10.30;;;6.40;;
40150;SDS011;25866;52.420;10.640;2022-11-20T05:14:39;8.43;;;5.73;;
40150;SDS011;25866;52.420;10.640;2022-11-20T05:17:05;9.67;;;6.20;;
40150;SDS011;25866;52.420;10.640;2022-11-20T05:19:31;8.20;;;5.73;;
40150;SDS011;25866;52.420;10.640;2022-11-20T05:21:56;9.60;;;6.00;;
40150;SDS011;25866;52.420;10.640;2022-11-20T05:24:22;12.80;;;7.03;;
40150;SDS011;25866;52.420;10.640;2022-11-20T05:26:48;11.50;;;6.57;;
40150;SDS011;25866;52.420;10.640;2022-11-20T05:29:14;11.17;;;6.13;;
40150;SDS011;25866;52.420;10.640;2022-11-20T05:31:40;9.37;;;6.13;;
40150;SDS011;25866;52.420;10.640;2022-11-20T05:34:06;12.07;;;6.27;;
40150;SDS011;25866;52.420;10.640;2022-11-20T05:36:32;10.17;;;6.50;;
40150;SDS011;25866;52.420;10.640;2022-11-20T05:38:58;9.57;;;6.70;;
40150;SDS011;25866;52.420;10.640;2022-11-20T05:41:23;10.67;;;6.80;;
40150;SDS011;25866;52.420;10.640;2022-11-20T05:43:49;9.90;;;6.73;;
40150;SDS011;25866;52.420;10.640;2022-11-20T05:46:17;9.57;;;6.40;;
40150;SDS011;25866;52.420;10.640;2022-11-20T05:48:44;8.80;;;5.93;;
40150;SDS011;25866;52.420;10.640;2022-11-20T05:51:12;9.47;;;6.57;;
40150;SDS011;25866;52.420;10.640;2022-11-20T05:53:40;10.47;;;6.40;;
40150;SDS011;25866;52.420;10.640;2022-11-20T05:56:09;9.13;;;6.23;;
40150;SDS011;25866;52.420;10.640;2022-11-20T05:58:37;12.07;;;6.30;;
40150;SDS011;25866;52.420;10.640;2022-11-20T06:01:04;10.93;;;6.10;;
40150;SDS011;25866;52.420;10.640;2022-11-20T06:03:30;12.17;;;6.27;;
40150;SDS011;25866;52.420;10.640;2022-11-20T06:05:55;11.00;;;6.40;;
40150;SDS011;25866;52.420;10.640;2022-11-20T06:08:21;10.37;;;6.13;;
40150;SDS011;25866;52.420;10.640;2022-11-20T06:10:47;10.60;;;6.40;;
40150;SDS011;25866;52.420;10.640;2022-11-20T06:13:12;12.20;;;6.67;;
40150;SDS011;25866;52.420;10.640;2022-11-20T06:15:38;10.17;;;6.57;;
40150;SDS011;25866;52.420;10.640;2022-11-20T06:18:04;8.77;;;6.13;;
40150;SDS011;25866;52.420;10.640;2022-11-20T06:20:29;13.47;;;6.07;;
40150;SDS011;25866;52.420;10.640;2022-11-20T06:22:55;8.27;;;5.77;;
40150;SDS011;25866;52.420;10.640;2022-11-20T06:25:20;9.57;;;5.60;;
40150;SDS011;25866;52.420;10.640;2022-11-20T06:27:46;8.10;;;6.00;;
40150;SDS011;25866;52.420;10.640;2022-11-20T06:30:13;8.27;;;5.50;;
40150;SDS011;25866;52.420;10.640;2022-11-20T06:32:39;7.77;;;5.27;;
40150;SDS011;25866;52.420;10.640;2022-11-20T06:35:05;7.53;;;5.47;;
40150;SDS011;25866;52.420;10.640;2022-11-20T06:37:31;7.17;;;5.17;;
40150;SDS011;25866;52.420;10.640;2022-11-20T06:39:56;9.60;;;5.57;;
40150;SDS011;25866;52.420;10.640;2022-11-20T06:42:22;7.30;;;5.23;;
40150;SDS011;25866;52.420;10.640;2022-11-20T06:44:48;8.53;;;5.80;;
40150;SDS011;25866;52.420;10.640;2022-11-20T06:47:14;7.83;;;5.50;;
40150;SDS011;25866;52.420;10.640;2022-11-20T06:49:42;8.47;;;5.70;;
40150;SDS011;25866;52.420;10.640;2022-11-20T06:52:08;8.03;;;5.10;;
40150;SDS011;25866;52.420;10.640;2022-11-20T06:54:34;9.10;;;4.87;;
40150;SDS011;25866;52.420;10.640;2022-11-20T06:57:00;7.03;;;5.23;;
40150;SDS011;25866;52.420;10.640;2022-11-20T06:59:25;8.20;;;5.17;;
40150;SDS011;25866;52.420;10.640;2022-11-20T07:01:51;9.53;;;5.30;;
40150;SDS011;25866;52.420;10.640;2022-11-20T07:04:17;7.03;;;5.20;;
40150;SDS011;25866;52.420;10.640;2022-11-20T07:06:43;7.63;;;5.63;;
40150;SDS011;25866;52.420;10.640;2022-11-20T07:09:09;8.83;;;5.33;;
40150;SDS011;25866;52.420;10.640;2022-11-20T07:11:34;7.93;;;5.80;;
40150;SDS011;25866;52.420;10.640;2022-11-20T07:14:00;7.73;;;5.43;;
40150;SDS011;25866;52.420;10.640;2022-11-20T07:16:26;7.57;;;5.13;;
40150;SDS011;25866;52.420;10.640;2022-11-20T07:18:52;9.10;;;5.67;;
40150;SDS011;25866;52.420;10.640;2022-11-20T07:21:17;9.17;;;6.03;;
40150;SDS011;25866;52.420;10.640;2022-11-20T07:23:43;8.93;;;5.47;;
40150;SDS011;25866;52.420;10.640;2022-11-20T07:26:10;10.10;;;5.53;;
40150;SDS011;25866;52.420;10.640;2022-11-20T07:28:36;8.50;;;5.47;;
40150;SDS011;25866;52.420;10.640;2022-11-20T07:31:02;8.40;;;5.87;;
40150;SDS011;25866;52.420;10.640;2022-11-20T07:33:29;8.77;;;6.00;;
40150;SDS011;25866;52.420;10.640;2022-11-20T07:35:55;9.30;;;5.47;;
40150;SDS011;25866;52.420;10.640;2022-11-20T07:38:23;9.60;;;5.63;;
40150;SDS011;25866;52.420;10.640;2022-11-20T07:40:52;9.40;;;6.13;;
40150;SDS011;25866;52.420;10.640;2022-11-20T07:43:19;9.83;;;5.37;;
40150;SDS011;25866;52.420;10.640;2022-11-20T07:45:45;9.67;;;5.93;;
40150;SDS011;25866;52.420;10.640;2022-11-20T07:48:11;10.23;;;6.07;;
40150;SDS011;25866;52.420;10.640;2022-11-20T07:50:36;9.50;;;6.77;;
40150;SDS011;25866;52.420;10.640;2022-11-20T07:53:05;9.90;;;6.10;;
40150;SDS011;25866;52.420;10.640;2022-11-20T07:55:31;10.03;;;6.17;;
40150;SDS011;25866;52.420;10.640;2022-11-20T07:57:58;9.50;;;5.93;;
40150;SDS011;25866;52.420;10.640;2022-11-20T08:00:24;8.40;;;5.67;;
40150;SDS011;25866;52.420;10.640;2022-11-20T08:02:51;10.20;;;5.80;;
40150;SDS011;25866;52.420;10.640;2022-11-20T08:05:16;11.03;;;6.00;;
40150;SDS011;25866;52.420;10.640;2022-11-20T08:07:43;9.60;;;6.43;;
40150;SDS011;25866;52.420;10.640;2022-11-20T08:10:10;8.40;;;5.97;;
40150;SDS011;25866;52.420;10.640;2022-11-20T08:12:47;7.67;;;6.00;;
40150;SDS011;25866;52.420;10.640;2022-11-20T08:15:32;9.53;;;6.53;;
40150;SDS011;25866;52.420;10.640;2022-11-20T08:17:59;10.80;;;6.13;;
40150;SDS011;25866;52.420;10.640;2022-11-20T08:20:29;10.07;;;6.13;;
40150;SDS011;25866;52.420;10.640;2022-11-20T08:22:59;8.40;;;5.70;;
40150;SDS011;25866;52.420;10.640;2022-11-20T08:25:26;8.33;;;5.87;;
40150;SDS011;25866;52.420;10.640;2022-11-20T08:27:52;7.83;;;5.67;;
40150;SDS011;25866;52.420;10.640;2022-11-20T08:30:18;8.33;;;5.67;;
40150;SDS011;25866;52.420;10.640;2022-11-20T08:32:44;10.10;;;5.80;;
40150;SDS011;25866;52.420;10.640;2022-11-20T08:35:10;9.67;;;5.83;;
40150;SDS011;25866;52.420;10.640;2022-11-20T08:37:35;9.23;;;5.70;;
40150;SDS011;25866;52.420;10.640;2022-11-20T08:40:03;8.60;;;5.90;;
40150;SDS011;25866;52.420;10.640;2022-11-20T08:42:29;7.70;;;5.50;;
40150;SDS011;25866;52.420;10.640;2022-11-20T08:44:55;8.93;;;5.77;;
40150;SDS011;25866;52.420;10.640;2022-11-20T08:47:24;7.70;;;5.73;;
40150;SDS011;25866;52.420;10.640;2022-11-20T08:49:49;8.50;;;5.80;;
40150;SDS011;25866;52.420;10.640;2022-11-20T08:52:15;9.60;;;5.70;;
40150;SDS011;25866;52.420;10.640;2022-11-20T08:54:41;8.93;;;6.03;;
40150;SDS011;25866;52.420;10.640;2022-11-20T08:57:07;9.23;;;5.73;;
40150;SDS011;25866;52.420;10.640;2022-11-20T08:59:32;9.93;;;6.17;;
40150;SDS011;25866;52.420;10.640;2022-11-20T09:01:58;9.17;;;6.20;;
40150;SDS011;25866;52.420;10.640;2022-11-20T09:04:24;9.87;;;6.37;;
40150;SDS011;25866;52.420;10.640;2022-11-20T09:06:49;9.63;;;6.37;;
40150;SDS011;25866;52.420;10.640;2022-11-20T09:09:16;7.57;;;5.53;;
40150;SDS011;25866;52.420;10.640;2022-11-20T09:11:43;8.83;;;6.00;;
40150;SDS011;25866;52.420;10.640;2022-11-20T09:14:09;8.63;;;5.37;;
40150;SDS011;25866;52.420;10.640;2022-11-20T09:16:35;9.40;;;5.97;;
40150;SDS011;25866;52.420;10.640;2022-11-20T09:19:00;8.60;;;5.97;;
40150;SDS011;25866;52.420;10.640;2022-11-20T09:21:26;8.03;;;5.73;;
40150;SDS011;25866;52.420;10.640;2022-11-20T09:23:52;7.60;;;5.30;;
40150;SDS011;25866;52.420;10.640;2022-11-20T09:26:18;9.60;;;6.13;;
40150;SDS011;25866;52.420;10.640;2022-11-20T09:28:44;8.17;;;5.50;;
40150;SDS011;25866;52.420;10.640;2022-11-20T09:31:23;8.10;;;5.37;;
40150;SDS011;25866;52.420;10.640;2022-11-20T09:33:51;9.07;;;6.33;;
40150;SDS011;25866;52.420;10.640;2022-11-20T09:36:17;7.73;;;5.60;;
40150;SDS011;25866;52.420;10.640;2022-11-20T09:38:46;8.90;;;5.90;;
40150;SDS011;25866;52.420;10.640;2022-11-20T09:41:26;7.83;;;5.50;;
40150;SDS011;25866;52.420;10.640;2022-11-20T09:46:40;8.90;;;4.90;;
40150;SDS011;25866;52.420;10.640;2022-11-20T09:52:00;8.77;;;5.87;;
40150;SDS011;25866;52.420;10.640;2022-11-20T09:54:37;9.40;;;5.87;;
40150;SDS011;25866;52.420;10.640;2022-11-20T09:57:09;8.53;;;5.40;;
40150;SDS011;25866;52.420;10.640;2022-11-20T09:59:49;8.40;;;5.63;;
40150;SDS011;25866;52.420;10.640;2022-11-20T10:04:57;10.47;;;5.80;;
40150;SDS011;25866;52.420;10.640;2022-11-20T10:10:59;10.37;;;5.47;;
40150;SDS011;25866;52.420;10.640;2022-11-20T10:30:01;7.80;;;5.53;;
40150;SDS011;25866;52.420;10.640;2022-11-20T10:32:33;9.60;;;5.60;;
40150;SDS011;25866;52.420;10.640;2022-11-20T10:35:07;8.10;;;5.53;;
40150;SDS011;25866;52.420;10.640;2022-11-20T10:38:00;8.73;;;5.57;;
40150;SDS011;25866;52.420;10.640;2022-11-20T10:56:41;8.87;;;5.90;;
40150;SDS011;25866;52.420;10.640;2022-11-20T11:02:24;8.53;;;5.50;;
40150;SDS011;25866;52.420;10.640;2022-11-20T11:04:58;10.07;;;6.13;;
40150;SDS011;25866;52.420;10.640;2022-11-20T11:07:36;10.57;;;5.57;;
40150;SDS011;25866;52.420;10.640;2022-11-20T11:10:12;12.20;;;5.47;;
40150;SDS011;25866;52.420;10.640;2022-11-20T11:12:45;9.57;;;5.20;;
40150;SDS011;25866;52.420;10.640;2022-11-20T11:15:30;9.97;;;5.40;;
40150;SDS011;25866;52.420;10.640;2022-11-20T11:18:08;8.17;;;5.57;;
40150;SDS011;25866;52.420;10.640;2022-11-20T11:20:35;7.13;;;4.97;;
40150;SDS011;25866;52.420;10.640;2022-11-20T11:23:02;9.43;;;5.63;;
40150;SDS011;25866;52.420;10.640;2022-11-20T11:30:44;7.90;;;5.17;;
40150;SDS011;25866;52.420;10.640;2022-11-20T11:33:32;7.87;;;5.60;;
40150;SDS011;25866;52.420;10.640;2022-11-20T11:36:04;9.47;;;5.73;;
40150;SDS011;25866;52.420;10.640;2022-11-20T11:38:48;10.00;;;5.63;;
40150;SDS011;25866;52.420;10.640;2022-11-20T11:41:19;8.63;;;5.50;;
40150;SDS011;25866;52.420;10.640;2022-11-20T11:43:55;8.23;;;5.07;;
40150;SDS011;25866;52.420;10.640;2022-11-20T11:46:44;6.57;;;5.00;;
40150;SDS011;25866;52.420;10.640;2022-11-20T11:49:18;8.57;;;4.67;;
40150;SDS011;25866;52.420;10.640;2022-11-20T11:51:47;7.10;;;4.77;;
40150;SDS011;25866;52.420;10.640;2022-11-20T11:54:30;6.67;;;4.50;;
40150;SDS011;25866;52.420;10.640;2022-11-20T12:05:45;8.23;;;5.27;;
40150;SDS011;25866;52.420;10.640;2022-11-20T12:08:29;9.43;;;6.57;;
40150;SDS011;25866;52.420;10.640;2022-11-20T12:11:04;7.43;;;5.20;;
40150;SDS011;25866;52.420;10.640;2022-11-20T12:13:42;7.60;;;5.07;;
40150;SDS011;25866;52.420;10.640;2022-11-20T12:16:18;8.90;;;5.90;;
40150;SDS011;25866;52.420;10.640;2022-11-20T12:18:45;8.07;;;5.43;;
40150;SDS011;25866;52.420;10.640;2022-11-20T12:21:26;9.13;;;5.93;;
40150;SDS011;25866;52.420;10.640;2022-11-20T12:30:01;8.57;;;6.00;;
40150;SDS011;25866;52.420;10.640;2022-11-20T12:41:10;8.83;;;5.97;;
40150;SDS011;25866;52.420;10.640;2022-11-20T12:44:10;9.40;;;6.33;;
40150;SDS011;25866;52.420;10.640;2022-11-20T12:52:53;8.40;;;6.23;;
40150;SDS011;25866;52.420;10.640;2022-11-20T12:57:58;8.90;;;5.80;;
40150;SDS011;25866;52.420;10.640;2022-11-20T13:01:45;8.93;;;5.70;;
40150;SDS011;25866;52.420;10.640;2022-11-20T13:06:49;8.60;;;5.97;;
40150;SDS011;25866;52.420;10.640;2022-11-20T13:09:16;9.90;;;5.90;;
40150;SDS011;25866;52.420;10.640;2022-11-20T13:19:40;8.83;;;5.53;;
40150;SDS011;25866;52.420;10.640;2022-11-20T13:22:07;9.67;;;5.80;;
40150;SDS011;25866;52.420;10.640;2022-11-20T13:24:34;8.77;;;6.07;;
40150;SDS011;25866;52.420;10.640;2022-11-20T13:29:40;8.27;;;5.43;;
40150;SDS011;25866;52.420;10.640;2022-11-20T13:32:16;7.70;;;5.37;;
40150;SDS011;25866;52.420;10.640;2022-11-20T13:34:52;9.47;;;5.73;;
40150;SDS011;25866;52.420;10.640;2022-11-20T13:37:26;9.97;;;6.70;;
40150;SDS011;25866;52.420;10.640;2022-11-20T13:42:39;10.30;;;6.20;;
40150;SDS011;25866;52.420;10.640;2022-11-20T13:45:29;8.97;;;5.70;;
40150;SDS011;25866;52.420;10.640;2022-11-20T13:47:56;8.57;;;5.70;;
40150;SDS011;25866;52.420;10.640;2022-11-20T13:53:42;9.83;;;6.40;;
40150;SDS011;25866;52.420;10.640;2022-11-20T13:59:33;9.97;;;5.60;;
40150;SDS011;25866;52.420;10.640;2022-11-20T14:02:17;8.50;;;6.07;;
40150;SDS011;25866;52.420;10.640;2022-11-20T14:04:46;8.43;;;5.57;;
40150;SDS011;25866;52.420;10.640;2022-11-20T14:07:16;8.77;;;5.40;;
40150;SDS011;25866;52.420;10.640;2022-11-20T14:09:51;7.03;;;4.77;;
40150;SDS011;25866;52.420;10.640;2022-11-20T14:12:21;8.60;;;5.53;;
40150;SDS011;25866;52.420;10.640;2022-11-20T14:14:53;9.87;;;5.97;;
40150;SDS011;25866;52.420;10.640;2022-11-20T14:17:20;7.97;;;5.50;;
40150;SDS011;25866;52.420;10.640;2022-11-20T14:19:48;9.13;;;6.13;;
40150;SDS011;25866;52.420;10.640;2022-11-20T14:22:20;9.40;;;5.97;;
40150;SDS011;25866;52.420;10.640;2022-11-20T14:24:46;9.00;;;5.83;;
40150;SDS011;25866;52.420;10.640;2022-11-20T14:27:18;7.33;;;5.00;;
40150;SDS011;25866;52.420;10.640;2022-11-20T14:29:46;7.90;;;5.10;;
40150;SDS011;25866;52.420;10.640;2022-11-20T14:32:15;8.23;;;5.73;;
40150;SDS011;25866;52.420;10.640;2022-11-20T14:34:48;8.00;;;5.10;;
40150;SDS011;25866;52.420;10.640;2022-11-20T14:37:20;6.33;;;4.50;;
40150;SDS011;25866;52.420;10.640;2022-11-20T14:39:50;5.77;;;4.07;;
40150;SDS011;25866;52.420;10.640;2022-11-20T14:42:21;7.97;;;3.73;;
40150;SDS011;25866;52.420;10.640;2022-11-20T14:44:48;7.07;;;4.20;;
40150;SDS011;25866;52.420;10.640;2022-11-20T14:47:20;6.20;;;4.47;;
40150;SDS011;25866;52.420;10.640;2022-11-20T14:49:48;6.27;;;4.10;;
40150;SDS011;25866;52.420;10.640;2022-11-20T14:52:16;5.50;;;3.70;;
40150;SDS011;25866;52.420;10.640;2022-11-20T14:54:47;4.83;;;3.50;;
40150;SDS011;25866;52.420;10.640;2022-11-20T15:00:03;5.63;;;3.60;;
40150;SDS011;25866;52.420;10.640;2022-11-20T15:02:41;6.70;;;4.00;;
40150;SDS011;25866;52.420;10.640;2022-11-20T15:05:08;4.57;;;3.40;;
40150;SDS011;25866;52.420;10.640;2022-11-20T15:07:41;5.47;;;4.00;;
40150;SDS011;25866;52.420;10.640;2022-11-20T15:12:52;6.87;;;3.93;;
40150;SDS011;25866;52.420;10.640;2022-11-20T15:15:28;7.37;;;4.50;;
40150;SDS011;25866;52.420;10.640;2022-11-20T15:18:01;9.20;;;4.93;;
40150;SDS011;25866;52.420;10.640;2022-11-20T15:20:28;7.03;;;5.00;;
40150;SDS011;25866;52.420;10.640;2022-11-20T15:22:58;8.97;;;6.07;;
40150;SDS011;25866;52.420;10.640;2022-11-20T15:25:24;10.93;;;7.03;;
40150;SDS011;25866;52.420;10.640;2022-11-20T15:27:52;10.17;;;6.30;;
40150;SDS011;25866;52.420;10.640;2022-11-20T15:30:22;10.63;;;4.60;;
40150;SDS011;25866;52.420;10.640;2022-11-20T15:32:48;7.20;;;4.53;;
40150;SDS011;25866;52.420;10.640;2022-11-20T15:35:14;6.63;;;4.80;;
40150;SDS011;25866;52.420;10.640;2022-11-20T15:37:40;7.77;;;5.47;;
40150;SDS011;25866;52.420;10.640;2022-11-20T15:40:07;11.63;;;7.87;;
40150;SDS011;25866;52.420;10.640;2022-11-20T15:42:34;12.43;;;8.30;;
40150;SDS011;25866;52.420;10.640;2022-11-20T15:45:00;8.60;;;5.37;;
40150;SDS011;25866;52.420;10.640;2022-11-20T15:47:31;11.80;;;5.87;;
40150;SDS011;25866;52.420;10.640;2022-11-20T15:49:59;8.97;;;5.87;;
40150;SDS011;25866;52.420;10.640;2022-11-20T15:52:25;9.27;;;6.00;;
40150;SDS011;25866;52.420;10.640;2022-11-20T15:54:53;7.60;;;5.67;;
40150;SDS011;25866;52.420;10.640;2022-11-20T15:57:19;8.00;;;5.27;;
40150;SDS011;25866;52.420;10.640;2022-11-20T15:59:45;8.03;;;6.17;;
40150;SDS011;25866;52.420;10.640;2022-11-20T16:02:11;11.20;;;5.10;;
40150;SDS011;25866;52.420;10.640;2022-11-20T16:04:38;12.13;;;6.30;;
40150;SDS011;25866;52.420;10.640;2022-11-20T16:07:04;11.03;;;6.63;;
40150;SDS011;25866;52.420;10.640;2022-11-20T16:09:30;11.87;;;7.57;;
40150;SDS011;25866;52.420;10.640;2022-11-20T16:11:56;9.43;;;5.83;;
40150;SDS011;25866;52.420;10.640;2022-11-20T16:14:25;10.67;;;6.93;;
40150;SDS011;25866;52.420;10.640;2022-11-20T16:17:10;12.57;;;7.67;;
40150;SDS011;25866;52.420;10.640;2022-11-20T16:19:37;12.87;;;7.17;;
40150;SDS011;25866;52.420;10.640;2022-11-20T16:22:02;13.57;;;8.00;;
40150;SDS011;25866;52.420;10.640;2022-11-20T16:24:28;13.27;;;7.40;;
40150;SDS011;25866;52.420;10.640;2022-11-20T16:26:54;10.63;;;6.93;;
40150;SDS011;25866;52.420;10.640;2022-11-20T16:29:21;11.03;;;7.13;;
40150;SDS011;25866;52.420;10.640;2022-11-20T16:31:47;11.23;;;6.77;;
40150;SDS011;25866;52.420;10.640;2022-11-20T16:34:14;12.47;;;8.00;;
40150;SDS011;25866;52.420;10.640;2022-11-20T16:36:41;15.03;;;8.97;;
40150;SDS011;25866;52.420;10.640;2022-11-20T16:39:10;14.00;;;8.37;;
40150;SDS011;25866;52.420;10.640;2022-11-20T16:41:36;14.90;;;8.63;;
40150;SDS011;25866;52.420;10.640;2022-11-20T16:44:05;17.90;;;8.90;;